Time;durP1;ratioP1;P1;durP2;ratioP2;P2;SDS_P1;SDS_P2;PMS_P1;PMS_P2;Temp;Humidity;BMP_temperature;BMP_pressure;BME280_temperature;BME280_humidity;BME280_pressure;Samples;Min_cycle;Max_cycle;Signal;HPM_P1;HPM_P2
2022/11/19 00:00:51;;;;;;;2.50;2.00;;;8.80;99.90;;;;;;5054624;28;20471;-87
2022/11/19 00:03:21;;;;;;;2.80;1.80;;;8.80;99.90;;;;;;5058470;28;20533;-88
2022/11/19 00:05:49;;;;;;;2.37;1.93;;;8.80;99.90;;;;;;5073659;28;20429;-89
2022/11/19 00:08:18;;;;;;;3.83;2.60;;;8.80;99.90;;;;;;5059164;28;20472;-86
2022/11/19 00:10:45;;;;;;;3.30;1.93;;;8.70;99.90;;;;;;5049983;28;20482;-88
2022/11/19 00:13:12;;;;;;;3.00;1.93;;;8.70;99.90;;;;;;5050124;28;20520;-88
2022/11/19 00:15:40;;;;;;;4.50;1.87;;;8.70;99.90;;;;;;5069499;28;20441;-88
2022/11/19 00:18:07;;;;;;;4.60;2.47;;;8.70;99.90;;;;;;5073415;28;20452;-88
2022/11/19 00:20:36;;;;;;;2.60;2.20;;;8.70;99.90;;;;;;5076520;28;20523;-88
2022/11/19 00:23:04;;;;;;;3.50;1.90;;;8.70;99.90;;;;;;5063507;28;20449;-89
2022/11/19 00:25:31;;;;;;;3.90;3.10;;;8.60;99.90;;;;;;5072903;28;20444;-88
2022/11/19 00:27:58;;;;;;;4.37;2.60;;;8.60;99.90;;;;;;5060090;28;20929;-87
2022/11/19 00:30:25;;;;;;;3.07;2.77;;;8.60;99.90;;;;;;5054203;28;20469;-87
2022/11/19 00:32:52;;;;;;;3.30;2.50;;;8.70;99.90;;;;;;5055916;28;20528;-87
2022/11/19 00:35:19;;;;;;;3.17;2.73;;;8.70;99.90;;;;;;5055699;28;21109;-87
2022/11/19 00:37:47;;;;;;;3.00;2.20;;;8.70;99.90;;;;;;5053585;28;20648;-87
2022/11/19 00:40:14;;;;;;;6.13;2.70;;;8.70;99.90;;;;;;5051813;28;20484;-86
2022/11/19 00:43:45;;;;;;;2.83;2.30;;;8.70;99.90;;;;;;5060801;28;20505;-87
2022/11/19 00:45:28;;;;;;;4.37;2.40;;;8.70;99.90;;;;;;5055248;28;20464;-87
2022/11/19 00:47:55;;;;;;;5.23;2.27;;;8.70;99.90;;;;;;5054668;28;20495;-86
2022/11/19 00:50:21;;;;;;;5.43;2.37;;;8.70;99.90;;;;;;5055457;28;20480;-86
2022/11/19 00:52:50;;;;;;;2.73;2.30;;;8.80;99.90;;;;;;5056916;28;20815;-87
2022/11/19 00:55:16;;;;;;;3.83;2.53;;;8.80;99.90;;;;;;5052986;28;20451;-87
2022/11/19 00:57:43;;;;;;;2.80;2.23;;;8.80;99.90;;;;;;5055304;28;20440;-87
2022/11/19 01:00:11;;;;;;;2.77;2.57;;;8.80;99.90;;;;;;5055448;28;20488;-87
2022/11/19 01:02:38;;;;;;;4.43;2.87;;;8.80;99.90;;;;;;5054301;28;20448;-87
2022/11/19 01:05:06;;;;;;;3.30;2.17;;;8.80;99.90;;;;;;5057856;28;20933;-87
2022/11/19 01:07:33;;;;;;;3.53;2.60;;;8.80;99.90;;;;;;5054524;28;20539;-88
2022/11/19 01:10:01;;;;;;;3.10;2.60;;;8.80;99.90;;;;;;5054360;28;20473;-88
2022/11/19 01:12:28;;;;;;;3.57;2.40;;;8.80;99.90;;;;;;5052186;28;20445;-87
2022/11/19 01:14:54;;;;;;;3.40;2.30;;;8.80;99.90;;;;;;5062610;28;20449;-87
2022/11/19 01:17:21;;;;;;;2.57;2.33;;;8.80;99.90;;;;;;5061523;28;20455;-88
2022/11/19 01:19:48;;;;;;;3.67;2.60;;;8.80;99.90;;;;;;5057694;28;20484;-87
2022/11/19 01:22:15;;;;;;;3.13;2.07;;;8.80;99.90;;;;;;5057627;28;20444;-88
2022/11/19 01:24:42;;;;;;;4.33;2.87;;;8.80;99.90;;;;;;5072449;28;20507;-88
2022/11/19 01:27:10;;;;;;;3.60;2.07;;;8.80;99.90;;;;;;5071210;28;20433;-87
2022/11/19 01:29:36;;;;;;;2.50;2.30;;;8.80;99.90;;;;;;5059909;28;20477;-86
2022/11/19 01:32:03;;;;;;;3.63;1.80;;;8.80;99.90;;;;;;5061924;28;20448;-87
2022/11/19 01:34:30;;;;;;;3.47;1.97;;;8.80;99.90;;;;;;5072413;28;20449;-87
2022/11/19 01:36:57;;;;;;;3.03;2.37;;;8.80;99.90;;;;;;5070039;28;20496;-88
2022/11/19 01:39:23;;;;;;;3.00;2.20;;;8.80;99.90;;;;;;5074150;28;20827;-87
2022/11/19 01:41:50;;;;;;;3.53;2.10;;;8.80;99.90;;;;;;5060940;28;20441;-87
2022/11/19 01:44:59;;;;;;;2.50;2.07;;;8.80;99.90;;;;;;5064611;28;20447;-88
2022/11/19 01:47:26;;;;;;;2.90;1.97;;;8.80;99.90;;;;;;5064402;28;20445;-88
2022/11/19 01:49:53;;;;;;;6.03;2.27;;;8.70;99.90;;;;;;5058657;28;20464;-88
2022/11/19 01:52:20;;;;;;;2.90;1.97;;;8.80;99.90;;;;;;5057146;28;20797;-88
2022/11/19 01:54:52;;;;;;;2.93;2.20;;;8.70;99.90;;;;;;5056179;28;20836;-87
2022/11/19 01:57:19;;;;;;;3.63;2.17;;;8.70;99.90;;;;;;5056105;28;20441;-87
2022/11/19 01:59:49;;;;;;;1.93;1.53;;;8.70;99.90;;;;;;5066350;28;20503;-86
2022/11/19 02:02:21;;;;;;;2.77;1.87;;;8.70;99.90;;;;;;5055312;28;20448;-87
2022/11/19 02:04:51;;;;;;;2.70;2.00;;;8.70;99.90;;;;;;5057079;28;20999;-86
2022/11/19 02:07:25;;;;;;;3.17;1.80;;;8.70;99.90;;;;;;5056931;28;20448;-86
2022/11/19 02:09:52;;;;;;;1.63;1.50;;;8.70;99.90;;;;;;5057352;28;20468;-88
2022/11/19 02:12:29;;;;;;;2.53;1.60;;;8.70;99.90;;;;;;5050650;28;20446;-88
2022/11/19 02:15:10;;;;;;;2.67;1.70;;;8.80;99.90;;;;;;5051896;28;20453;-87
2022/11/19 02:17:57;;;;;;;2.40;1.93;;;8.70;99.90;;;;;;5064254;28;20464;-88
2022/11/19 02:20:44;;;;;;;2.50;1.83;;;8.60;99.90;;;;;;5067638;28;20771;-86
2022/11/19 02:23:48;;;;;;;2.77;1.60;;;8.60;99.90;;;;;;5064530;28;20449;-87
2022/11/19 02:26:54;;;;;;;4.27;1.80;;;8.60;99.90;;;;;;5068928;28;20437;-87
2022/11/19 02:29:53;;;;;;;2.63;1.47;;;8.60;99.90;;;;;;5063932;28;20620;-88
2022/11/19 02:32:27;;;;;;;3.17;1.67;;;8.50;99.90;;;;;;5077649;28;20459;-87
2022/11/19 02:35:01;;;;;;;2.43;1.70;;;8.50;99.90;;;;;;5077015;28;20536;-89
2022/11/19 02:37:37;;;;;;;3.80;1.40;;;8.60;99.90;;;;;;5059817;28;20453;-87
2022/11/19 02:40:10;;;;;;;2.63;1.73;;;8.60;99.90;;;;;;5065820;28;20500;-89
2022/11/19 02:42:44;;;;;;;3.40;1.90;;;8.60;99.90;;;;;;5069782;28;20480;-88
2022/11/19 02:45:16;;;;;;;2.20;1.87;;;8.70;99.90;;;;;;5054782;28;20444;-88
2022/11/19 02:47:46;;;;;;;2.10;1.33;;;8.70;99.90;;;;;;5056753;28;20468;-88
2022/11/19 02:50:16;;;;;;;6.17;1.50;;;8.60;99.90;;;;;;5054871;28;20484;-88
2022/11/19 02:52:45;;;;;;;4.50;2.20;;;8.60;99.90;;;;;;5055210;28;20440;-87
2022/11/19 02:55:13;;;;;;;2.20;1.50;;;8.60;99.90;;;;;;5056291;28;20445;-86
2022/11/19 02:57:42;;;;;;;4.33;1.53;;;8.70;99.90;;;;;;5059499;28;20464;-88
2022/11/19 03:05:48;;;;;;;2.80;1.67;;;8.70;99.90;;;;;;5053934;28;20436;-87
2022/11/19 03:08:15;;;;;;;4.50;1.70;;;8.70;99.90;;;;;;5054488;28;20485;-87
2022/11/19 03:10:50;;;;;;;2.37;1.57;;;8.70;99.90;;;;;;5055287;28;20824;-87
2022/11/19 03:19:05;;;;;;;2.17;1.60;;;8.80;99.90;;;;;;5057340;28;20789;-87
2022/11/19 03:21:38;;;;;;;2.27;1.90;;;8.80;99.90;;;;;;5053386;28;20561;-87
2022/11/19 03:24:09;;;;;;;4.20;1.83;;;8.80;99.90;;;;;;5062690;28;20775;-87
2022/11/19 03:26:40;;;;;;;3.93;2.70;;;8.90;99.90;;;;;;5065526;28;20441;-87
2022/11/19 03:29:12;;;;;;;6.43;2.00;;;8.90;99.90;;;;;;5053483;28;20481;-88
2022/11/19 03:31:43;;;;;;;3.63;1.60;;;9.00;99.90;;;;;;5054341;28;20520;-88
2022/11/19 03:34:15;;;;;;;4.90;1.80;;;9.00;99.90;;;;;;5054041;28;20441;-88
2022/11/19 03:36:45;;;;;;;3.80;1.63;;;9.00;99.90;;;;;;5050279;28;20444;-88
2022/11/19 03:39:15;;;;;;;3.80;1.90;;;9.00;99.90;;;;;;5051834;28;20467;-88
2022/11/19 03:41:45;;;;;;;2.20;1.87;;;9.00;99.90;;;;;;5052150;28;20968;-88
2022/11/19 03:44:16;;;;;;;2.37;1.70;;;9.00;99.90;;;;;;5055773;28;20524;-87
2022/11/19 03:46:46;;;;;;;2.83;2.20;;;8.90;99.90;;;;;;5052782;28;20484;-87
2022/11/19 03:49:17;;;;;;;4.47;1.80;;;8.90;99.90;;;;;;5054122;28;20455;-87
2022/11/19 03:51:50;;;;;;;2.40;1.73;;;8.90;99.90;;;;;;5053428;28;20524;-88
2022/11/19 03:54:17;;;;;;;2.73;2.20;;;8.90;99.90;;;;;;5052890;28;20444;-88
2022/11/19 03:56:46;;;;;;;2.33;1.43;;;8.90;99.90;;;;;;5053917;28;20947;-88
2022/11/19 03:59:13;;;;;;;2.40;1.77;;;8.90;99.90;;;;;;5054091;28;20947;-87
2022/11/19 04:01:40;;;;;;;2.07;1.53;;;9.00;99.90;;;;;;5053857;28;20544;-88
2022/11/19 04:06:53;;;;;;;3.80;2.30;;;9.00;99.90;;;;;;5051305;28;20439;-88
2022/11/19 04:09:19;;;;;;;3.00;2.13;;;9.00;99.90;;;;;;5050399;28;20457;-87
2022/11/19 04:11:46;;;;;;;7.37;1.73;;;9.00;99.90;;;;;;5051896;28;20457;-87
2022/11/19 04:14:13;;;;;;;2.53;1.33;;;9.00;99.90;;;;;;5054769;28;20447;-87
2022/11/19 04:16:40;;;;;;;2.50;1.50;;;9.00;99.90;;;;;;5073335;28;20527;-88
2022/11/19 04:19:07;;;;;;;2.93;1.80;;;9.00;99.90;;;;;;5067520;28;20937;-87
2022/11/19 04:21:34;;;;;;;1.70;1.43;;;9.00;99.90;;;;;;5064260;28;20564;-87
2022/11/19 04:24:02;;;;;;;2.50;1.73;;;9.00;99.90;;;;;;5076693;28;20429;-88
2022/11/19 04:26:29;;;;;;;3.00;1.50;;;9.00;99.90;;;;;;5065779;28;20429;-88
2022/11/19 04:28:56;;;;;;;2.50;1.90;;;9.00;99.90;;;;;;5067913;28;20460;-87
2022/11/19 04:31:23;;;;;;;3.40;2.03;;;9.10;99.90;;;;;;5067535;28;20475;-87
2022/11/19 04:33:50;;;;;;;2.50;1.70;;;9.00;99.90;;;;;;5052524;28;20441;-88
2022/11/19 04:36:17;;;;;;;3.20;1.70;;;8.90;99.90;;;;;;5054506;28;20823;-88
2022/11/19 04:38:44;;;;;;;2.50;1.50;;;8.90;99.90;;;;;;5056721;28;20473;-88
2022/11/19 04:41:12;;;;;;;3.57;1.80;;;8.90;99.90;;;;;;5076359;28;20499;-89
2022/11/19 04:43:39;;;;;;;2.40;1.63;;;8.80;99.90;;;;;;5061807;28;20444;-88
2022/11/19 04:46:06;;;;;;;2.17;1.37;;;8.80;99.90;;;;;;5053554;28;20444;-87
2022/11/19 04:48:33;;;;;;;3.20;1.90;;;8.70;99.90;;;;;;5055851;28;20441;-87
2022/11/19 04:51:00;;;;;;;2.57;1.40;;;8.70;99.90;;;;;;5062355;28;20890;-88
2022/11/19 04:53:26;;;;;;;1.80;1.50;;;8.60;99.90;;;;;;5061100;28;20529;-87
2022/11/19 04:55:53;;;;;;;5.57;2.17;;;8.70;99.90;;;;;;5051959;28;20451;-88
2022/11/19 04:58:22;;;;;;;3.53;1.77;;;8.70;99.90;;;;;;5053809;28;20461;-87
2022/11/19 05:00:49;;;;;;;2.33;1.60;;;8.70;99.90;;;;;;5050411;28;20484;-87
2022/11/19 05:03:16;;;;;;;5.03;2.10;;;8.70;99.90;;;;;;5051985;28;20449;-87
2022/11/19 05:05:43;;;;;;;4.73;3.07;;;8.80;99.90;;;;;;5053486;28;20437;-87
2022/11/19 05:08:09;;;;;;;3.90;1.87;;;8.70;99.90;;;;;;5051781;28;20790;-88
2022/11/19 05:10:36;;;;;;;3.50;1.87;;;8.70;99.90;;;;;;5053229;28;20461;-88
2022/11/19 05:13:03;;;;;;;3.23;1.63;;;8.70;99.90;;;;;;5053025;28;20441;-88
2022/11/19 05:15:31;;;;;;;2.67;2.13;;;8.70;99.90;;;;;;5053490;28;20540;-88
2022/11/19 05:17:58;;;;;;;3.13;2.00;;;8.70;99.90;;;;;;5055241;28;20444;-87
2022/11/19 05:20:25;;;;;;;2.93;1.80;;;8.80;99.90;;;;;;5065942;28;20494;-87
2022/11/19 05:22:51;;;;;;;2.33;2.10;;;8.80;99.90;;;;;;5074274;28;20436;-89
2022/11/19 05:25:18;;;;;;;2.93;1.77;;;8.80;99.90;;;;;;5058734;28;20932;-88
2022/11/19 05:27:45;;;;;;;3.00;1.70;;;8.80;99.90;;;;;;5053448;28;20469;-88
2022/11/19 05:30:13;;;;;;;1.90;1.70;;;8.80;99.90;;;;;;5055844;28;20464;-87
2022/11/19 05:32:41;;;;;;;3.97;1.77;;;8.80;99.90;;;;;;5057869;28;20449;-88
2022/11/19 05:35:09;;;;;;;2.27;1.80;;;8.80;99.90;;;;;;5052452;28;21022;-88
2022/11/19 05:37:36;;;;;;;1.70;1.30;;;8.80;99.90;;;;;;5050908;28;20542;-88
2022/11/19 05:40:04;;;;;;;2.13;1.93;;;8.80;99.90;;;;;;5053127;28;20551;-88
2022/11/19 05:42:31;;;;;;;3.23;1.90;;;8.70;99.90;;;;;;5049390;28;20495;-87
2022/11/19 05:44:58;;;;;;;2.37;1.80;;;8.70;99.90;;;;;;5050883;28;20443;-88
2022/11/19 05:47:25;;;;;;;2.67;1.90;;;8.70;99.90;;;;;;5049959;28;21017;-88
2022/11/19 05:49:55;;;;;;;2.63;1.93;;;8.70;99.90;;;;;;5053595;28;20483;-87
2022/11/19 05:52:21;;;;;;;2.43;2.10;;;8.70;99.90;;;;;;5076373;28;20432;-88
2022/11/19 05:54:48;;;;;;;3.90;2.23;;;8.80;99.90;;;;;;5057063;28;20436;-86
2022/11/19 05:57:15;;;;;;;2.67;2.00;;;8.80;99.90;;;;;;5055236;28;20444;-87
2022/11/19 05:59:43;;;;;;;4.30;2.17;;;8.80;99.90;;;;;;5059052;28;20967;-87
2022/11/19 06:02:09;;;;;;;3.93;2.63;;;8.90;99.90;;;;;;5054019;28;21016;-87
2022/11/19 06:04:36;;;;;;;3.43;2.87;;;8.90;99.90;;;;;;5060579;28;20432;-87
2022/11/19 06:07:05;;;;;;;2.90;2.60;;;8.80;99.90;;;;;;5072362;28;20441;-88
2022/11/19 06:09:32;;;;;;;3.27;2.07;;;8.80;99.90;;;;;;5057816;28;20551;-86
2022/11/19 06:12:00;;;;;;;2.33;2.13;;;8.80;99.90;;;;;;5054752;28;20437;-86
2022/11/19 06:14:27;;;;;;;3.10;2.50;;;8.70;99.90;;;;;;5054174;28;20955;-87
2022/11/19 06:16:56;;;;;;;3.30;2.30;;;8.70;99.90;;;;;;5051572;28;20437;-88
2022/11/19 06:19:25;;;;;;;3.33;2.23;;;8.70;99.90;;;;;;5055852;28;20497;-88
2022/11/19 06:21:52;;;;;;;3.50;2.10;;;8.80;99.90;;;;;;5055018;28;20972;-87
2022/11/19 06:24:21;;;;;;;3.10;2.37;;;8.80;99.90;;;;;;5055895;28;20444;-87
2022/11/19 06:26:47;;;;;;;2.90;2.40;;;8.80;99.90;;;;;;5056440;28;20463;-87
2022/11/19 06:29:15;;;;;;;2.83;2.27;;;8.70;99.90;;;;;;5071634;28;20429;-87
2022/11/19 06:31:43;;;;;;;3.50;2.50;;;8.70;99.90;;;;;;5081245;28;20504;-88
2022/11/19 06:34:11;;;;;;;3.40;2.60;;;8.70;99.90;;;;;;5080811;28;20448;-89
2022/11/19 06:36:44;;;;;;;2.30;2.10;;;8.70;99.90;;;;;;5079946;28;20433;-88
2022/11/19 06:39:11;;;;;;;4.43;2.50;;;8.60;99.90;;;;;;5059727;28;20433;-86
2022/11/19 06:41:39;;;;;;;4.13;2.90;;;8.60;99.90;;;;;;5065919;28;20473;-86
2022/11/19 06:44:06;;;;;;;3.40;2.80;;;8.50;99.90;;;;;;5061028;28;20433;-87
2022/11/19 06:46:33;;;;;;;3.87;2.53;;;8.60;99.90;;;;;;5056719;28;20464;-87
2022/11/19 06:49:02;;;;;;;4.20;2.20;;;8.60;99.90;;;;;;5053310;28;20441;-86
2022/11/19 06:51:29;;;;;;;4.80;2.50;;;8.70;99.90;;;;;;5056140;28;20456;-86
2022/11/19 06:53:55;;;;;;;3.20;2.40;;;8.70;99.90;;;;;;5056204;28;20441;-80
2022/11/19 06:56:22;;;;;;;2.83;2.53;;;8.80;99.90;;;;;;5057241;28;20448;-80
2022/11/19 06:58:51;;;;;;;2.00;1.80;;;8.80;99.90;;;;;;5064250;28;20448;-79
2022/11/19 07:01:18;;;;;;;3.70;2.00;;;8.90;99.90;;;;;;5064089;28;21046;-82
2022/11/19 07:03:44;;;;;;;2.33;2.13;;;9.00;99.90;;;;;;5065962;28;20447;-87
2022/11/19 07:06:11;;;;;;;2.40;1.97;;;9.00;99.90;;;;;;5071773;28;20500;-85
2022/11/19 07:08:38;;;;;;;5.80;2.23;;;9.00;99.90;;;;;;5066735;28;20818;-86
2022/11/19 07:11:24;;;;;;;2.30;2.10;;;9.00;99.90;;;;;;5067746;28;20476;-86
2022/11/19 07:13:59;;;;;;;2.33;2.00;;;9.00;99.90;;;;;;5064818;28;20449;-86
2022/11/19 07:16:28;;;;;;;5.07;2.20;;;9.00;99.90;;;;;;5064040;28;20480;-85
2022/11/19 07:18:57;;;;;;;3.70;2.37;;;9.00;99.90;;;;;;5058018;28;20441;-87
2022/11/19 07:21:24;;;;;;;4.80;2.43;;;8.90;99.90;;;;;;5058219;28;20483;-86
2022/11/19 07:23:51;;;;;;;3.90;2.90;;;8.90;99.90;;;;;;5060198;28;20444;-84
2022/11/19 07:26:18;;;;;;;8.70;3.30;;;8.90;99.90;;;;;;5059814;28;20441;-86
2022/11/19 07:28:45;;;;;;;4.00;2.50;;;8.80;99.90;;;;;;5057806;28;20445;-85
2022/11/19 07:31:13;;;;;;;3.40;2.50;;;8.80;99.90;;;;;;5059527;28;20471;-86
2022/11/19 07:33:39;;;;;;;2.57;2.10;;;8.80;99.90;;;;;;5059373;28;20441;-86
2022/11/19 07:36:08;;;;;;;8.40;3.90;;;8.70;99.90;;;;;;5055679;28;20440;-85
2022/11/19 07:38:35;;;;;;;6.40;3.87;;;8.70;99.90;;;;;;5059260;28;20535;-86
2022/11/19 07:42:47;;;;;;;5.30;3.80;;;8.80;99.90;;;;;;5058545;28;20986;-85
2022/11/19 07:43:50;;;;;;;6.27;2.80;;;8.80;99.90;;;;;;5058249;28;20875;-84
2022/11/19 07:46:18;;;;;;;2.60;2.27;;;8.90;99.90;;;;;;5069675;22;20501;-86
2022/11/19 07:48:45;;;;;;;5.37;2.43;;;9.10;99.90;;;;;;5034079;28;20442;-86
2022/11/19 07:51:11;;;;;;;6.00;2.80;;;9.30;99.90;;;;;;5035838;28;20441;-86
2022/11/19 07:53:38;;;;;;;3.57;3.27;;;9.40;99.90;;;;;;5036483;28;20466;-84
2022/11/19 07:56:05;;;;;;;4.10;3.70;;;9.50;99.90;;;;;;5044514;28;20465;-83
2022/11/19 07:58:32;;;;;;;6.63;5.73;;;9.50;99.90;;;;;;5053750;28;20437;-85
2022/11/19 08:01:06;;;;;;;3.97;3.10;;;9.60;99.90;;;;;;5057265;28;20979;-83
2022/11/19 08:03:34;;;;;;;5.27;3.10;;;9.70;99.90;;;;;;5049681;28;20451;-83
2022/11/19 08:06:02;;;;;;;4.37;2.70;;;9.80;99.90;;;;;;5052857;28;20457;-85
2022/11/19 08:08:30;;;;;;;7.90;2.70;;;9.90;99.90;;;;;;5052324;28;20445;-85
2022/11/19 08:10:56;;;;;;;3.13;2.43;;;10.00;99.90;;;;;;5052613;28;20440;-85
2022/11/19 08:13:23;;;;;;;2.60;2.40;;;10.20;99.90;;;;;;5050534;28;20452;-85
2022/11/19 08:15:50;;;;;;;3.47;2.37;;;10.20;99.90;;;;;;5045779;28;20461;-85
2022/11/19 08:18:16;;;;;;;4.63;2.83;;;10.20;99.90;;;;;;5043166;28;20446;-84
2022/11/19 08:20:47;;;;;;;3.20;1.97;;;10.10;99.90;;;;;;5041776;28;20448;-84
2022/11/19 08:23:14;;;;;;;3.70;1.80;;;10.00;99.90;;;;;;5042320;28;20453;-84
2022/11/19 08:25:43;;;;;;;4.80;3.63;;;10.00;99.90;;;;;;5042892;28;20503;-84
2022/11/19 08:28:11;;;;;;;2.57;2.10;;;10.10;99.90;;;;;;5042354;28;20446;-84
2022/11/19 08:30:40;;;;;;;3.77;2.83;;;10.20;99.90;;;;;;5042208;28;20429;-84
2022/11/19 08:33:08;;;;;;;2.13;1.77;;;10.30;99.90;;;;;;5044870;28;20438;-82
2022/11/19 08:35:34;;;;;;;2.57;1.90;;;10.40;99.90;;;;;;5050243;28;20458;-84
2022/11/19 08:38:03;;;;;;;1.80;1.40;;;10.40;99.90;;;;;;5064929;28;20431;-87
2022/11/19 08:40:29;;;;;;;2.50;1.67;;;10.30;99.90;;;;;;5068426;28;20426;-82
2022/11/19 08:43:01;;;;;;;7.33;2.50;;;10.20;99.90;;;;;;5048286;28;20481;-85
2022/11/19 08:45:30;;;;;;;5.03;2.10;;;10.30;99.90;;;;;;5051248;28;20463;-85
2022/11/19 08:47:59;;;;;;;1.97;1.53;;;10.30;99.90;;;;;;5049030;28;20473;-83
2022/11/19 08:50:26;;;;;;;4.40;2.50;;;10.40;99.90;;;;;;5046527;28;20437;-82
2022/11/19 08:52:58;;;;;;;4.33;2.37;;;10.60;99.90;;;;;;5040671;28;20449;-87
2022/11/19 08:55:28;;;;;;;2.30;1.97;;;10.80;99.90;;;;;;5042210;28;20460;-85
2022/11/19 08:58:00;;;;;;;3.47;1.80;;;10.80;99.90;;;;;;5044292;28;20500;-85
2022/11/19 09:00:26;;;;;;;4.10;2.83;;;10.90;99.90;;;;;;5045400;28;20445;-85
2022/11/19 09:02:55;;;;;;;2.90;1.80;;;10.90;99.90;;;;;;5052742;28;20477;-85
2022/11/19 09:05:22;;;;;;;2.30;1.40;;;10.80;99.90;;;;;;5056053;28;20458;-86
2022/11/19 09:07:49;;;;;;;3.40;2.33;;;10.90;99.90;;;;;;5058060;28;20443;-86
2022/11/19 09:10:16;;;;;;;1.83;1.30;;;11.10;99.90;;;;;;5044780;28;20437;-85
2022/11/19 09:12:44;;;;;;;2.50;2.10;;;11.00;99.90;;;;;;5058659;28;20463;-86
2022/11/19 09:15:11;;;;;;;3.17;2.07;;;10.90;99.90;;;;;;5062950;28;20460;-87
2022/11/19 09:17:39;;;;;;;3.10;1.80;;;11.00;99.90;;;;;;5051467;28;20547;-86
2022/11/19 09:20:07;;;;;;;2.30;1.30;;;10.80;99.90;;;;;;5062954;28;20491;-86
2022/11/19 09:22:33;;;;;;;3.03;1.90;;;10.80;99.90;;;;;;5049515;28;20557;-87
2022/11/19 09:25:00;;;;;;;3.47;2.37;;;10.80;99.90;;;;;;5054198;28;20465;-86
2022/11/19 09:27:27;;;;;;;1.80;1.30;;;10.90;99.90;;;;;;5047556;28;20449;-86
2022/11/19 09:29:55;;;;;;;2.50;1.40;;;11.00;99.90;;;;;;5051177;28;20451;-86
2022/11/19 09:32:22;;;;;;;3.60;1.73;;;11.40;99.90;;;;;;5058743;28;20441;-87
2022/11/19 09:34:49;;;;;;;2.30;1.80;;;11.80;99.90;;;;;;5053577;28;20464;-85
2022/11/19 09:37:17;;;;;;;2.50;1.90;;;12.10;99.90;;;;;;5051090;28;20446;-86
2022/11/19 09:39:44;;;;;;;1.83;1.17;;;12.10;99.90;;;;;;5066016;28;20442;-85
2022/11/19 09:42:16;;;;;;;2.70;1.20;;;11.80;99.90;;;;;;5053696;28;20997;-87
2022/11/19 09:45:04;;;;;;;1.80;1.40;;;11.50;99.90;;;;;;5052538;28;20483;-85
2022/11/19 09:47:47;;;;;;;2.33;1.33;;;11.30;99.90;;;;;;5041786;28;20437;-86
2022/11/19 09:50:18;;;;;;;1.77;1.40;;;11.40;99.90;;;;;;5059767;28;20448;-85
2022/11/19 09:52:48;;;;;;;3.57;1.97;;;11.40;99.90;;;;;;5051748;28;20432;-85
2022/11/19 09:55:19;;;;;;;2.10;1.50;;;11.40;99.90;;;;;;5051092;28;20811;-85
2022/11/19 09:57:51;;;;;;;2.07;1.40;;;11.20;99.90;;;;;;5057098;28;20437;-88
2022/11/19 10:00:21;;;;;;;1.87;1.27;;;11.10;99.90;;;;;;5068192;28;20813;-86
2022/11/19 10:02:48;;;;;;;2.00;1.40;;;10.80;99.90;;;;;;5053123;28;20558;-87
2022/11/19 10:05:18;;;;;;;2.37;1.70;;;10.70;99.90;;;;;;5060178;28;20469;-85
2022/11/19 10:07:56;;;;;;;2.73;1.60;;;10.70;99.90;;;;;;5051666;28;20451;-86
2022/11/19 10:10:39;;;;;;;1.57;1.30;;;10.70;99.90;;;;;;5048951;28;20444;-88
2022/11/19 10:13:27;;;;;;;1.73;1.30;;;10.70;99.90;;;;;;5049491;28;20436;-83
2022/11/19 10:16:15;;;;;;;3.27;1.40;;;10.70;99.90;;;;;;5049912;28;20978;-85
2022/11/19 10:18:54;;;;;;;4.90;1.50;;;10.80;99.90;;;;;;5054061;28;20504;-85
2022/11/19 10:21:29;;;;;;;2.30;1.10;;;10.90;99.90;;;;;;5067376;28;20444;-83
2022/11/19 10:24:03;;;;;;;3.13;1.40;;;10.80;99.90;;;;;;5059277;28;20443;-82
2022/11/19 10:26:34;;;;;;;1.43;0.90;;;10.80;99.90;;;;;;5054559;28;20476;-83
2022/11/19 10:29:03;;;;;;;2.53;1.10;;;10.80;99.90;;;;;;5068465;28;20418;-84
2022/11/19 10:31:35;;;;;;;2.20;1.67;;;10.80;99.90;;;;;;5053770;28;20451;-82
2022/11/19 10:34:11;;;;;;;2.20;1.20;;;10.80;99.90;;;;;;5050891;28;20807;-83
2022/11/19 10:36:42;;;;;;;4.83;2.07;;;10.90;99.90;;;;;;5048101;28;20461;-83
2022/11/19 10:39:16;;;;;;;2.10;1.40;;;11.00;99.90;;;;;;5049646;28;20463;-83
2022/11/19 10:41:49;;;;;;;2.20;1.63;;;11.20;99.90;;;;;;5056852;28;20451;-86
2022/11/19 10:44:39;;;;;;;2.90;1.67;;;11.50;99.90;;;;;;5062237;28;20462;-86
2022/11/19 10:47:12;;;;;;;2.47;1.30;;;11.60;99.90;;;;;;5055490;28;20896;-88
2022/11/19 10:49:41;;;;;;;2.40;1.73;;;11.70;99.90;;;;;;5051105;28;20441;-89
2022/11/19 10:52:25;;;;;;;2.43;1.37;;;11.70;99.90;;;;;;5050342;28;20440;-84
2022/11/19 10:54:56;;;;;;;3.83;2.20;;;11.70;99.90;;;;;;5048111;28;20487;-85
2022/11/19 10:57:23;;;;;;;2.87;1.57;;;11.70;99.90;;;;;;5047166;28;20452;-84
2022/11/19 10:59:53;;;;;;;5.13;2.70;;;11.70;99.90;;;;;;5049645;28;20438;-86
2022/11/19 11:02:31;;;;;;;4.50;2.40;;;11.70;99.90;;;;;;5048098;28;20497;-85
2022/11/19 11:05:05;;;;;;;8.40;3.37;;;11.60;99.90;;;;;;5045594;28;20470;-85
2022/11/19 11:07:51;;;;;;;5.77;2.80;;;11.70;99.90;;;;;;5056266;28;20441;-85
2022/11/19 11:10:33;;;;;;;3.03;2.30;;;11.80;99.90;;;;;;5050567;28;20432;-87
2022/11/19 11:16:08;;;;;;;6.23;1.70;;;11.90;99.90;;;;;;5062970;28;20452;-84
2022/11/19 11:18:39;;;;;;;2.30;1.43;;;11.90;99.90;;;;;;5054192;28;20441;-85
2022/11/19 11:21:09;;;;;;;2.03;1.73;;;11.80;99.90;;;;;;5045530;28;20484;-86
2022/11/19 11:23:47;;;;;;;3.17;2.30;;;11.80;99.90;;;;;;5048203;28;20510;-85
2022/11/19 11:26:22;;;;;;;4.20;3.23;;;11.90;99.90;;;;;;5056909;28;20464;-86
2022/11/19 11:29:01;;;;;;;4.63;2.43;;;11.80;99.90;;;;;;5052041;28;20945;-85
2022/11/19 11:31:31;;;;;;;3.50;2.20;;;11.70;99.90;;;;;;5054232;28;20440;-86
2022/11/19 11:34:01;;;;;;;2.63;2.10;;;11.70;99.90;;;;;;5074279;28;20444;-86
2022/11/19 11:36:30;;;;;;;2.40;1.90;;;11.60;99.90;;;;;;5068626;28;20469;-86
2022/11/19 11:38:59;;;;;;;2.03;1.30;;;11.60;99.90;;;;;;5060739;28;20424;-85
2022/11/19 11:41:34;;;;;;;3.67;1.80;;;11.50;99.90;;;;;;5066148;28;20439;-84
2022/11/19 11:44:03;;;;;;;2.67;1.80;;;11.50;99.90;;;;;;5060897;28;20473;-83
2022/11/19 11:46:39;;;;;;;2.27;1.80;;;11.50;99.90;;;;;;5053809;28;20559;-86
2022/11/19 11:49:11;;;;;;;16.63;4.87;;;11.40;99.90;;;;;;5046849;28;20436;-86
2022/11/19 11:51:39;;;;;;;5.43;2.03;;;11.40;99.90;;;;;;5049049;28;20455;-86
2022/11/19 11:54:15;;;;;;;2.70;1.63;;;11.40;99.90;;;;;;5053047;28;20504;-85
2022/11/19 11:56:42;;;;;;;2.97;1.40;;;11.20;99.90;;;;;;5049533;28;20441;-85
2022/11/19 11:59:23;;;;;;;5.23;2.30;;;11.10;99.90;;;;;;5048231;28;20442;-86
2022/11/19 12:01:57;;;;;;;5.40;3.80;;;11.00;99.90;;;;;;5048136;28;20443;-85
2022/11/19 12:04:25;;;;;;;4.47;2.67;;;11.10;99.90;;;;;;5048751;28;20444;-85
2022/11/19 12:07:05;;;;;;;4.13;2.23;;;11.00;99.90;;;;;;5046161;28;20461;-86
2022/11/19 12:09:41;;;;;;;8.97;4.33;;;11.00;99.90;;;;;;5049673;28;20467;-86
2022/11/19 12:12:16;;;;;;;5.83;2.80;;;10.90;99.90;;;;;;5044860;28;20981;-83
2022/11/19 12:14:49;;;;;;;4.33;2.33;;;11.00;99.90;;;;;;5055217;28;20490;-85
2022/11/19 12:17:36;;;;;;;8.20;4.00;;;11.00;99.90;;;;;;5056670;28;20452;-84
2022/11/19 12:20:24;;;;;;;5.00;2.97;;;10.90;99.90;;;;;;5052186;28;20459;-85
2022/11/19 12:23:19;;;;;;;4.30;2.77;;;10.90;99.90;;;;;;5051193;28;20469;-86
2022/11/19 12:25:57;;;;;;;2.53;1.97;;;10.70;99.90;;;;;;5049701;28;20453;-85
2022/11/19 12:28:38;;;;;;;4.03;1.83;;;10.60;99.90;;;;;;5050513;28;20443;-85
2022/11/19 12:31:19;;;;;;;2.50;1.70;;;10.50;99.90;;;;;;5052764;28;20440;-84
2022/11/19 12:34:08;;;;;;;5.20;2.97;;;10.40;99.90;;;;;;5050232;28;20447;-85
2022/11/19 12:36:46;;;;;;;4.67;3.07;;;10.30;99.90;;;;;;5051801;28;20566;-86
2022/11/19 12:39:25;;;;;;;5.37;3.33;;;10.30;99.90;;;;;;5051976;28;20447;-85
2022/11/19 12:42:05;;;;;;;5.77;3.47;;;10.20;99.90;;;;;;5050846;28;20445;-86
2022/11/19 12:44:45;;;;;;;21.77;12.77;;;10.20;99.90;;;;;;5046567;28;20949;-85
2022/11/19 12:47:25;;;;;;;17.03;9.40;;;10.20;99.90;;;;;;5046605;28;20448;-85
2022/11/19 12:50:03;;;;;;;11.33;8.77;;;10.20;99.90;;;;;;5049189;28;20440;-84
2022/11/19 12:52:55;;;;;;;11.70;8.40;;;10.30;99.90;;;;;;5053979;28;20444;-85
2022/11/19 12:55:27;;;;;;;7.40;6.23;;;10.30;99.90;;;;;;5048978;28;20460;-85
2022/11/19 12:58:04;;;;;;;14.90;12.80;;;10.30;99.90;;;;;;5047042;28;20441;-86
2022/11/19 13:00:32;;;;;;;6.00;4.93;;;10.30;99.90;;;;;;5046783;28;20801;-85
2022/11/19 13:03:10;;;;;;;5.93;5.33;;;10.30;99.90;;;;;;5064684;28;20478;-86
2022/11/19 13:05:47;;;;;;;8.93;4.80;;;10.30;99.90;;;;;;5054209;28;20880;-84
2022/11/19 13:08:20;;;;;;;2.53;2.17;;;10.40;99.90;;;;;;5048133;28;20958;-83
2022/11/19 13:10:50;;;;;;;4.67;2.90;;;10.40;99.90;;;;;;5045788;28;20476;-83
2022/11/19 13:13:21;;;;;;;3.60;2.13;;;10.30;99.90;;;;;;5050331;28;20975;-84
2022/11/19 13:15:56;;;;;;;4.47;3.23;;;10.30;99.90;;;;;;5051460;28;20468;-84
2022/11/19 13:18:25;;;;;;;4.73;4.23;;;10.30;99.90;;;;;;5052582;28;20443;-84
2022/11/19 13:20:55;;;;;;;6.50;3.93;;;10.30;99.90;;;;;;5055331;28;20457;-85
2022/11/19 13:23:28;;;;;;;4.57;3.20;;;10.30;99.90;;;;;;5052574;28;20472;-83
2022/11/19 13:25:59;;;;;;;5.03;3.27;;;10.30;99.90;;;;;;5050865;28;20467;-84
2022/11/19 13:28:31;;;;;;;3.73;2.60;;;10.20;99.90;;;;;;5055167;28;20444;-84